Time;durP1;ratioP1;P1;durP2;ratioP2;P2;SDS_P1;SDS_P2;PMS_P1;PMS_P2;Temp;Humidity;BMP_temperature;BMP_pressure;BME280_temperature;BME280_humidity;BME280_pressure;Samples;Min_cycle;Max_cycle;Signal;HPM_P1;HPM_P2
2022/01/11 00:01:43;;;;;;;389.30;51.63;;;;;;;-2.11;100.00;102980.06;5043144;28;20271;-77
2022/01/11 00:04:15;;;;;;;205.60;42.03;;;;;;;-1.97;100.00;102990.09;5039983;28;20290;-74
2022/01/11 00:06:45;;;;;;;197.50;43.15;;;;;;;-1.95;100.00;102985.41;5048871;28;20075;-73
2022/01/11 00:09:32;;;;;;;219.45;41.00;;;;;;;-1.75;100.00;102987.72;5041880;28;20032;-74
2022/01/11 00:11:58;;;;;;;204.38;40.92;;;;;;;-1.67;100.00;102990.41;5038630;28;20497;-74
2022/01/11 00:14:23;;;;;;;292.35;46.67;;;;;;;-1.63;100.00;102986.38;5039474;28;20041;-73
2022/01/11 00:16:49;;;;;;;247.15;45.95;;;;;;;-1.53;100.00;102995.06;5039269;28;20057;-74
2022/01/11 00:19:15;;;;;;;256.58;46.50;;;;;;;-1.68;100.00;102991.41;5041282;28;20086;-73
2022/01/11 00:21:49;;;;;;;331.00;51.00;;;;;;;-1.99;100.00;103002.78;5039153;28;20121;-74
2022/01/11 00:24:29;;;;;;;425.83;57.55;;;;;;;-1.95;100.00;103004.13;5041496;28;20323;-74
2022/01/11 00:26:57;;;;;;;324.08;53.08;;;;;;;-1.68;100.00;102989.56;5043418;28;20075;-74
2022/01/11 00:29:22;;;;;;;224.45;46.42;;;;;;;-1.58;100.00;102994.72;5030865;28;20041;-73
2022/01/11 00:31:48;;;;;;;214.15;41.67;;;;;;;-1.64;100.00;102995.41;5041785;28;20133;-74
2022/01/11 00:34:17;;;;;;;294.23;51.47;;;;;;;-1.81;100.00;103002.59;5027155;28;20041;-75
2022/01/11 00:36:42;;;;;;;271.55;47.97;;;;;;;-1.71;100.00;103000.59;5050964;28;20057;-74
2022/01/11 00:39:10;;;;;;;232.07;46.08;;;;;;;-1.54;100.00;103008.59;5039872;28;20383;-74
2022/01/11 00:41:40;;;;;;;225.18;42.45;;;;;;;-1.64;100.00;103016.81;5037345;28;20884;-73
2022/01/11 00:44:06;;;;;;;249.85;46.80;;;;;;;-1.64;100.00;103014.13;5043812;28;20362;-74
2022/01/11 00:46:33;;;;;;;363.65;59.10;;;;;;;-1.74;100.00;103010.81;5042135;28;20447;-73
2022/01/11 00:48:58;;;;;;;353.02;55.78;;;;;;;-1.81;100.00;103005.28;5045237;28;20044;-73
2022/01/11 00:51:24;;;;;;;331.20;50.08;;;;;;;-1.84;100.00;102995.75;5041139;28;20037;-73
2022/01/11 00:53:49;;;;;;;325.23;50.13;;;;;;;-1.86;100.00;103000.47;5042982;28;20485;-73
2022/01/11 00:56:14;;;;;;;244.27;45.63;;;;;;;-2.42;100.00;103012.75;5040382;28;20043;-73
2022/01/11 00:58:41;;;;;;;428.13;56.60;;;;;;;-2.25;100.00;103028.81;5039631;28;20033;-74
2022/01/11 01:01:07;;;;;;;371.25;57.42;;;;;;;-1.97;100.00;103024.84;5031434;28;20102;-74
2022/01/11 01:03:32;;;;;;;398.77;56.22;;;;;;;-1.97;100.00;103016.84;5044378;28;20405;-73
2022/01/11 01:05:59;;;;;;;228.50;43.97;;;;;;;-1.76;100.00;103019.00;5035477;28;20040;-74
2022/01/11 01:08:27;;;;;;;299.42;49.72;;;;;;;-1.89;100.00;103018.66;5050000;28;20021;-74
2022/01/11 01:10:53;;;;;;;286.40;49.80;;;;;;;-1.68;100.00;103021.66;5045865;28;20102;-73
2022/01/11 01:13:24;;;;;;;350.05;60.88;;;;;;;-1.79;100.00;103015.81;5044331;28;20052;-74
2022/01/11 01:15:58;;;;;;;347.83;57.15;;;;;;;-1.65;100.00;103020.50;5027049;28;20126;-73
2022/01/11 01:18:44;;;;;;;319.15;50.83;;;;;;;-1.68;100.00;103018.16;5047294;28;20074;-74
2022/01/11 01:21:09;;;;;;;275.48;49.88;;;;;;;-1.49;100.00;103025.81;5050056;28;20036;-74
2022/01/11 01:23:35;;;;;;;336.35;55.17;;;;;;;-1.47;100.00;103022.97;5041394;28;20052;-74
2022/01/11 01:26:01;;;;;;;313.55;52.15;;;;;;;-1.45;100.00;103029.84;5045672;28;20099;-74
2022/01/11 01:28:27;;;;;;;472.42;66.18;;;;;;;-1.60;100.00;103028.84;5043975;28;20838;-74
2022/01/11 01:30:53;;;;;;;368.60;61.20;;;;;;;-1.47;100.00;103034.50;5044644;28;20041;-73
2022/01/11 01:33:20;;;;;;;325.20;56.25;;;;;;;-1.41;100.00;103028.47;5043553;28;20052;-74
2022/01/11 01:35:51;;;;;;;358.08;57.85;;;;;;;-1.41;100.00;103039.19;5049972;28;20041;-73
2022/01/11 01:38:23;;;;;;;332.85;59.03;;;;;;;-1.50;100.00;103039.38;5051898;28;20065;-75
2022/01/11 01:40:50;;;;;;;343.40;57.13;;;;;;;-1.56;100.00;103040.06;5053714;28;20125;-73
2022/01/11 01:43:16;;;;;;;346.30;59.45;;;;;;;-1.47;100.00;103053.25;5056265;28;20056;-73
2022/01/11 01:45:46;;;;;;;317.58;60.38;;;;;;;-1.39;100.00;103053.25;5053134;28;20041;-74
2022/01/11 01:48:12;;;;;;;328.40;57.63;;;;;;;-1.63;100.00;103061.28;5034099;28;20047;-73
2022/01/11 01:50:38;;;;;;;263.52;52.05;;;;;;;-1.46;100.00;103068.28;5057165;28;20261;-74
2022/01/11 01:53:07;;;;;;;361.42;60.53;;;;;;;-1.47;100.00;103068.47;5039556;28;20027;-74
2022/01/11 01:55:33;;;;;;;277.50;54.78;;;;;;;-1.46;100.00;103073.63;5052581;28;20033;-73
2022/01/11 01:57:59;;;;;;;293.85;58.40;;;;;;;-1.34;100.00;103060.75;5049737;28;20122;-73
2022/01/11 02:00:26;;;;;;;215.05;49.47;;;;;;;-1.31;100.00;103059.56;5044729;28;20092;-74
2022/01/11 02:03:03;;;;;;;275.42;52.20;;;;;;;-1.18;100.00;103059.91;5054378;28;20048;-73
2022/01/11 02:05:29;;;;;;;350.55;60.17;;;;;;;-1.46;100.00;103060.25;5046557;28;20037;-72
2022/01/11 02:07:54;;;;;;;212.18;48.08;;;;;;;-1.40;100.00;103073.00;5048939;28;20075;-74
2022/01/11 02:10:19;;;;;;;298.60;52.13;;;;;;;-1.32;100.00;103068.63;5054948;28;20055;-73
2022/01/11 02:12:45;;;;;;;294.45;57.42;;;;;;;-1.16;100.00;103068.59;5048576;28;20040;-73
2022/01/11 02:15:10;;;;;;;295.13;57.92;;;;;;;-1.15;100.00;103064.91;5052144;28;20040;-73
2022/01/11 02:17:38;;;;;;;290.60;55.15;;;;;;;-1.10;100.00;103062.56;5040605;28;20132;-74
2022/01/11 02:20:04;;;;;;;253.88;52.05;;;;;;;-1.05;100.00;103057.50;5037256;28;20096;-73
2022/01/11 02:22:30;;;;;;;263.55;53.08;;;;;;;-1.17;100.00;103062.38;5061698;28;20127;-74
2022/01/11 02:24:56;;;;;;;340.92;60.20;;;;;;;-1.18;100.00;103065.25;5052071;28;20397;-73
2022/01/11 02:27:22;;;;;;;238.00;49.70;;;;;;;-0.99;100.00;103070.22;5055313;28;20373;-74
2022/01/11 02:29:48;;;;;;;362.55;64.40;;;;;;;-1.04;100.00;103071.75;5054040;28;20063;-73
2022/01/11 02:32:14;;;;;;;249.05;51.35;;;;;;;-0.88;100.00;103065.50;5050440;28;20075;-72
2022/01/11 02:34:40;;;;;;;323.95;59.65;;;;;;;-0.94;100.00;103072.38;5052558;28;20359;-73
2022/01/11 02:37:16;;;;;;;328.38;57.50;;;;;;;-1.00;100.00;103063.19;5053530;28;20107;-74
2022/01/11 02:39:50;;;;;;;262.23;55.45;;;;;;;-0.93;100.00;103071.38;5044451;28;20033;-74
2022/01/11 02:42:23;;;;;;;;;;;;;;;-0.89;100.00;103072.69;5058356;28;20063;-74
2022/01/11 02:44:48;;;;;;;304.75;59.60;;;;;;;-0.89;100.00;103074.56;5055946;28;19916;-74
2022/01/11 02:47:18;;;;;;;319.95;62.13;;;;;;;-0.93;100.00;103080.25;5063697;28;20041;-73
2022/01/11 02:49:44;;;;;;;258.80;53.55;;;;;;;-0.81;100.00;103071.84;5064992;28;20037;-73
2022/01/11 02:52:15;;;;;;;271.33;55.58;;;;;;;-0.92;100.00;103073.88;5055247;28;20033;-74
2022/01/11 02:54:44;;;;;;;279.33;57.90;;;;;;;-0.76;100.00;103066.78;5055586;28;20040;-74
2022/01/11 02:57:20;;;;;;;244.40;59.10;;;;;;;-0.77;100.00;103068.63;5063882;28;20173;-73
2022/01/11 02:59:49;;;;;;;254.50;54.00;;;;;;;-0.82;100.00;103064.81;5054922;28;20041;-73
2022/01/11 03:02:17;;;;;;;251.23;52.80;;;;;;;-0.86;100.00;103066.16;5057252;28;20056;-74
2022/01/11 03:04:44;;;;;;;241.85;54.70;;;;;;;-0.81;100.00;103071.84;5046963;28;20041;-73
2022/01/11 03:07:10;;;;;;;371.13;67.03;;;;;;;-0.83;100.00;103068.50;5046295;28;20043;-73
2022/01/11 03:09:56;;;;;;;266.83;55.05;;;;;;;-0.81;100.00;103078.03;5046110;28;20033;-73
2022/01/11 03:12:24;;;;;;;338.33;64.13;;;;;;;-1.02;100.00;103065.22;5041020;28;20045;-73
2022/01/11 03:14:50;;;;;;;271.13;58.95;;;;;;;-0.97;100.00;103073.56;5043614;28;20060;-73
2022/01/11 03:17:16;;;;;;;254.13;56.38;;;;;;;-1.12;100.00;103064.56;5039643;28;20032;-73
2022/01/11 03:19:42;;;;;;;351.45;66.10;;;;;;;-1.09;100.00;103069.56;5044207;28;20044;-75
2022/01/11 03:22:08;;;;;;;347.05;65.63;;;;;;;-1.12;100.00;103063.72;5046360;28;20025;-73
2022/01/11 03:24:33;;;;;;;221.82;54.50;;;;;;;-1.02;100.00;103070.56;5042362;28;20064;-73
2022/01/11 03:27:00;;;;;;;214.35;53.83;;;;;;;-0.99;100.00;103074.72;5041383;28;20048;-74
2022/01/11 03:29:26;;;;;;;222.65;51.80;;;;;;;-0.98;100.00;103077.25;5041105;28;20033;-73
2022/01/11 03:31:51;;;;;;;240.18;51.33;;;;;;;-1.08;100.00;103078.44;5040948;28;20079;-73
2022/01/11 03:34:19;;;;;;;216.95;50.70;;;;;;;-1.00;100.00;103084.59;5049146;28;20122;-74
2022/01/11 03:36:45;;;;;;;221.65;51.47;;;;;;;-1.10;100.00;103089.34;5054197;28;20803;-73
2022/01/11 03:39:11;;;;;;;220.02;51.50;;;;;;;-0.94;100.00;103102.66;5045128;28;20060;-74
2022/01/11 03:41:37;;;;;;;199.38;49.13;;;;;;;-0.86;100.00;103095.63;5039687;28;20044;-75
2022/01/11 03:44:04;;;;;;;182.63;50.83;;;;;;;-0.80;100.00;103100.28;5048687;28;20151;-74
2022/01/11 03:46:29;;;;;;;239.88;54.33;;;;;;;-0.87;100.00;103093.94;5042857;28;20090;-74
2022/01/11 03:48:55;;;;;;;195.60;49.03;;;;;;;-0.98;100.00;103087.13;5043134;28;20033;-73
2022/01/11 03:51:22;;;;;;;221.40;50.95;;;;;;;-0.82;100.00;103099.63;5047669;28;20028;-74
2022/01/11 03:54:15;;;;;;;196.20;46.78;;;;;;;-0.86;100.00;103103.66;5047341;28;20029;-73
2022/01/11 03:56:57;;;;;;;191.48;48.30;;;;;;;-0.74;100.00;103095.06;5037362;28;20069;-74
2022/01/11 03:59:26;;;;;;;173.13;47.17;;;;;;;-0.72;100.00;103095.75;5039870;28;20033;-74
2022/01/11 04:01:52;;;;;;;160.80;45.40;;;;;;;-0.70;100.00;103100.91;5049237;28;20486;-74
2022/01/11 04:04:19;;;;;;;169.77;47.40;;;;;;;-0.73;100.00;103102.13;5048876;28;20048;-74
2022/01/11 04:06:45;;;;;;;169.60;48.22;;;;;;;-0.64;100.00;103094.91;5042875;28;20129;-74
2022/01/11 04:09:11;;;;;;;185.65;47.42;;;;;;;-0.68;100.00;103099.75;5041035;28;20143;-73
2022/01/11 04:11:37;;;;;;;216.75;53.05;;;;;;;-0.86;100.00;103093.78;5036157;28;20048;-73
2022/01/11 04:14:03;;;;;;;227.57;51.50;;;;;;;-0.82;100.00;103096.94;5044790;28;20084;-73
2022/01/11 04:16:28;;;;;;;173.98;45.30;;;;;;;-0.68;100.00;103107.78;5042907;28;20057;-73
2022/01/11 04:18:55;;;;;;;205.88;51.95;;;;;;;-0.84;100.00;103107.00;5039495;28;20386;-73
2022/01/11 04:21:21;;;;;;;224.60;53.63;;;;;;;-0.89;100.00;103095.97;5039053;28;20071;-74
2022/01/11 04:23:51;;;;;;;229.82;53.00;;;;;;;-0.69;100.00;103091.91;5040675;28;20055;-74
2022/01/11 04:26:16;;;;;;;199.55;51.97;;;;;;;-0.63;100.00;103107.28;5048325;28;20040;-74
2022/01/11 04:28:42;;;;;;;205.00;51.83;;;;;;;-0.65;100.00;103114.63;5037974;28;20059;-73
2022/01/11 04:31:08;;;;;;;186.38;51.88;;;;;;;-0.74;100.00;103110.31;5039255;28;20118;-75
2022/01/11 04:33:34;;;;;;;202.55;51.35;;;;;;;-0.60;100.00;103111.44;5044102;28;20029;-74
2022/01/11 04:36:01;;;;;;;206.65;52.72;;;;;;;-0.68;100.00;103109.63;5043184;28;20035;-74
2022/01/11 04:38:29;;;;;;;226.63;54.92;;;;;;;-0.53;100.00;103117.78;5057965;28;20041;-73
2022/01/11 04:40:55;;;;;;;189.98;52.63;;;;;;;-0.60;100.00;103123.00;5050685;28;20366;-73
2022/01/11 04:43:21;;;;;;;197.52;52.95;;;;;;;-0.72;100.00;103122.53;5039100;28;20039;-74
2022/01/11 04:45:48;;;;;;;184.18;51.70;;;;;;;-0.54;100.00;103116.94;5050528;28;20127;-74
2022/01/11 04:48:14;;;;;;;178.10;49.95;;;;;;;-0.53;100.00;103109.72;5044497;28;20071;-74
2022/01/11 04:50:41;;;;;;;169.30;48.80;;;;;;;-0.57;100.00;103111.94;5039331;28;20370;-73
2022/01/11 04:53:11;;;;;;;195.13;52.85;;;;;;;-0.54;100.00;103111.59;5038394;28;20535;-73
2022/01/11 04:55:36;;;;;;;174.90;51.05;;;;;;;-0.51;100.00;103116.59;5022224;28;20043;-74
2022/01/11 04:58:03;;;;;;;207.27;53.75;;;;;;;-0.53;100.00;103117.78;5038428;28;20044;-75
2022/01/11 05:00:29;;;;;;;229.10;57.10;;;;;;;-0.49;100.00;103114.59;5040935;28;20127;-73
2022/01/11 05:02:59;;;;;;;231.98;54.72;;;;;;;-0.55;100.00;103117.13;5048632;28;20047;-73
2022/01/11 05:05:29;;;;;;;197.85;52.65;;;;;;;-0.54;100.00;103119.63;5046493;28;20274;-74
2022/01/11 05:07:55;;;;;;;183.10;51.88;;;;;;;-0.43;100.00;103118.41;5041025;28;20051;-74
2022/01/11 05:10:21;;;;;;;200.80;53.83;;;;;;;-0.59;100.00;103108.59;5042783;28;20040;-73
2022/01/11 05:12:47;;;;;;;215.35;53.47;;;;;;;-0.55;100.00;103101.88;5044401;28;20098;-73
2022/01/11 05:15:15;;;;;;;203.30;54.47;;;;;;;-0.54;100.00;103095.50;5040675;28;20935;-72
2022/01/11 05:17:42;;;;;;;221.45;56.83;;;;;;;-0.48;100.00;103094.81;5032824;28;20036;-73
2022/01/11 05:20:09;;;;;;;211.07;54.15;;;;;;;-0.49;100.00;103105.72;5036042;28;20033;-73
2022/01/11 05:22:35;;;;;;;195.82;51.85;;;;;;;-0.64;100.00;103107.44;5052490;28;20039;-73
2022/01/11 05:25:00;;;;;;;204.52;54.58;;;;;;;-0.65;100.00;103114.63;5039978;28;20492;-74
2022/01/11 05:27:30;;;;;;;176.88;50.65;;;;;;;-0.71;100.00;103112.66;5044667;28;20741;-73
2022/01/11 05:29:56;;;;;;;193.45;51.22;;;;;;;-0.74;100.00;103115.69;5052654;28;20464;-73
2022/01/11 05:32:21;;;;;;;160.77;49.22;;;;;;;-0.75;100.00;103119.38;5029750;28;20035;-72
2022/01/11 05:34:47;;;;;;;191.15;49.80;;;;;;;-0.60;100.00;103128.38;5045206;28;20036;-73
2022/01/11 05:37:12;;;;;;;183.57;50.08;;;;;;;-0.55;100.00;103133.22;5042438;28;20056;-73
2022/01/11 05:39:38;;;;;;;162.90;46.58;;;;;;;-0.59;100.00;103124.66;5029697;28;20044;-76
2022/01/11 05:42:06;;;;;;;174.68;48.47;;;;;;;-0.70;100.00;103130.38;5059126;28;20032;-74
2022/01/11 05:44:36;;;;;;;163.35;46.92;;;;;;;-0.84;100.00;103131.09;5033143;28;20132;-74
2022/01/11 05:47:03;;;;;;;166.35;48.67;;;;;;;-0.78;100.00;103130.44;5052941;28;20041;-73
2022/01/11 05:49:30;;;;;;;174.82;47.83;;;;;;;-0.77;100.00;103129.41;5049200;28;20060;-75
2022/01/11 05:51:55;;;;;;;160.98;48.17;;;;;;;-0.71;100.00;103134.91;5039506;28;20147;-73
2022/01/11 05:54:21;;;;;;;148.52;47.08;;;;;;;-0.69;100.00;103140.94;5028205;28;20504;-73
2022/01/11 05:56:47;;;;;;;164.80;48.42;;;;;;;-0.88;100.00;103146.69;5041702;28;20331;-74
2022/01/11 05:59:13;;;;;;;168.65;47.38;;;;;;;-0.63;100.00;103138.59;5048383;28;20029;-74
2022/01/11 06:01:38;;;;;;;152.05;45.75;;;;;;;-0.63;100.00;103142.09;5041044;28;20039;-73
2022/01/11 06:04:04;;;;;;;188.45;50.90;;;;;;;-0.58;100.00;103141.56;5058428;28;20045;-73
2022/01/11 06:06:30;;;;;;;144.90;42.30;;;;;;;-0.79;100.00;103134.94;5059231;28;20079;-73
2022/01/11 06:08:55;;;;;;;168.90;47.25;;;;;;;-0.89;100.00;103141.50;5058031;28;20048;-74
2022/01/11 06:11:21;;;;;;;155.70;47.45;;;;;;;-0.79;100.00;103153.69;5055746;28;20047;-73
2022/01/11 06:13:50;;;;;;;168.57;49.35;;;;;;;-0.94;100.00;103147.38;5057762;28;20420;-73
2022/01/11 06:16:17;;;;;;;140.15;43.75;;;;;;;-0.85;100.00;103159.72;5050327;28;20049;-73
2022/01/11 06:18:45;;;;;;;172.10;51.70;;;;;;;-1.07;100.00;103152.44;5038553;28;20041;-73
2022/01/11 06:21:19;;;;;;;158.38;47.03;;;;;;;-0.96;100.00;103160.09;5043576;28;20036;-73
2022/01/11 06:23:46;;;;;;;132.65;43.28;;;;;;;-1.00;100.00;103156.91;5046669;28;20129;-73
2022/01/11 06:26:13;;;;;;;135.35;44.03;;;;;;;-1.11;100.00;103156.44;5045679;28;20572;-74
2022/01/11 06:28:40;;;;;;;140.18;44.10;;;;;;;-1.00;100.00;103154.25;5038828;28;20431;-73
2022/01/11 06:31:06;;;;;;;136.85;45.03;;;;;;;-1.08;100.00;103156.91;5038328;28;20365;-74
2022/01/11 06:33:32;;;;;;;128.82;42.42;;;;;;;-1.16;100.00;103170.34;5041269;28;20123;-73
2022/01/11 06:35:58;;;;;;;118.00;42.00;;;;;;;-1.12;100.00;103173.50;5037917;28;20538;-74
2022/01/11 06:38:23;;;;;;;139.98;43.83;;;;;;;-1.17;100.00;103174.84;5040346;28;20138;-75
2022/01/11 06:40:49;;;;;;;148.73;45.28;;;;;;;-1.02;100.00;103169.66;5043296;28;20064;-74
2022/01/11 06:43:14;;;;;;;149.85;44.78;;;;;;;-1.02;100.00;103177.69;5042583;28;20641;-73
2022/01/11 06:45:42;;;;;;;129.35;42.28;;;;;;;-1.04;100.00;103187.72;5043833;28;20442;-73
2022/01/11 06:48:11;;;;;;;139.93;44.97;;;;;;;-1.05;100.00;103194.06;5046904;28;20098;-74
2022/01/11 06:50:37;;;;;;;142.88;41.92;;;;;;;-1.05;100.00;103193.25;5043693;28;20397;-74
2022/01/11 06:53:02;;;;;;;142.23;43.67;;;;;;;-1.12;100.00;103200.28;5041443;28;20037;-74
2022/01/11 06:55:30;;;;;;;139.50;43.45;;;;;;;-1.16;100.00;103197.94;5042172;28;20040;-74
2022/01/11 06:57:56;;;;;;;122.00;41.00;;;;;;;-1.15;100.00;103198.78;5046050;28;20106;-73
2022/01/11 07:00:21;;;;;;;132.95;42.80;;;;;;;-1.04;100.00;103211.81;5045253;28;20075;-74
2022/01/11 07:02:53;;;;;;;144.20;44.03;;;;;;;-1.03;100.00;103218.84;5045784;28;20021;-73
2022/01/11 07:05:36;;;;;;;127.18;41.80;;;;;;;-1.00;100.00;103221.19;5040005;28;20045;-76
2022/01/11 07:08:01;;;;;;;154.93;44.85;;;;;;;-0.95;100.00;103224.22;5043791;28;20042;-73
2022/01/11 07:10:27;;;;;;;132.40;40.80;;;;;;;-1.02;100.00;103217.88;5048178;28;20124;-75
2022/01/11 07:12:52;;;;;;;144.40;42.53;;;;;;;-1.04;100.00;103217.19;5046631;28;20520;-74
2022/01/11 07:15:18;;;;;;;128.50;43.05;;;;;;;-1.19;100.00;103224.22;5041568;28;20053;-73
2022/01/11 07:17:46;;;;;;;128.68;42.13;;;;;;;-1.06;100.00;103216.50;5041832;28;20452;-73
2022/01/11 07:20:11;;;;;;;136.02;42.90;;;;;;;-1.17;100.00;103227.53;5044805;28;20041;-74
2022/01/11 07:22:37;;;;;;;147.63;42.97;;;;;;;-1.15;100.00;103230.91;5037428;28;20038;-74
2022/01/11 07:25:05;;;;;;;155.70;44.88;;;;;;;-1.02;100.00;103228.56;5042097;28;20051;-73
2022/01/11 07:27:33;;;;;;;157.57;46.50;;;;;;;-1.09;100.00;103235.59;5047615;28;20040;-74
2022/01/11 07:29:58;;;;;;;162.20;44.95;;;;;;;-1.13;100.00;103234.25;5053162;28;20464;-75
2022/01/11 07:32:24;;;;;;;156.88;44.58;;;;;;;-1.02;100.00;103241.97;5037884;28;20029;-73
2022/01/11 07:34:50;;;;;;;156.05;45.47;;;;;;;-1.07;100.00;103244.31;5042052;28;20044;-73
2022/01/11 07:37:16;;;;;;;157.80;44.67;;;;;;;-0.99;100.00;103252.34;5044189;28;20037;-73
2022/01/11 07:39:44;;;;;;;171.85;47.30;;;;;;;-0.90;100.00;103255.84;5040216;28;20025;-74
2022/01/11 07:42:10;;;;;;;144.90;43.17;;;;;;;-0.92;100.00;103253.34;5025244;28;20047;-74
2022/01/11 07:44:46;;;;;;;147.25;43.00;;;;;;;-0.86;100.00;103259.03;5024624;28;20040;-73
2022/01/11 07:47:11;;;;;;;165.95;46.17;;;;;;;-0.81;100.00;103262.03;5040890;28;20040;-75
2022/01/11 07:49:38;;;;;;;141.85;42.55;;;;;;;-0.79;100.00;103258.16;5039007;28;20067;-74
2022/01/11 07:52:03;;;;;;;139.02;41.47;;;;;;;-0.94;100.00;103260.69;5045403;28;20044;-74
2022/01/11 07:54:29;;;;;;;148.10;42.40;;;;;;;-0.98;100.00;103263.88;5039550;28;20528;-73
2022/01/11 07:56:56;;;;;;;153.93;43.08;;;;;;;-1.21;100.00;103264.53;5043257;28;20520;-73
2022/01/11 07:59:21;;;;;;;154.45;39.92;;;;;;;-1.17;100.00;103265.03;5050101;28;20070;-73
2022/01/11 08:01:47;;;;;;;148.52;41.70;;;;;;;-1.18;100.00;103258.00;5042966;28;20033;-74
2022/01/11 08:04:14;;;;;;;157.88;42.13;;;;;;;-1.26;100.00;103261.50;5044693;28;20052;-72
2022/01/11 08:06:46;;;;;;;181.75;46.08;;;;;;;-1.35;100.00;103257.16;5044965;28;20071;-74
2022/01/11 08:09:20;;;;;;;211.18;49.72;;;;;;;-1.08;100.00;103257.84;5040917;28;20560;-74
2022/01/11 08:11:45;;;;;;;180.20;46.85;;;;;;;-0.97;100.00;103260.19;5039947;28;20076;-74
2022/01/11 08:14:11;;;;;;;211.00;47.83;;;;;;;-0.83;100.00;103258.69;5055005;28;20499;-74
2022/01/11 08:16:39;;;;;;;202.20;48.75;;;;;;;-0.67;100.00;103253.31;5040212;28;20477;-74
2022/01/11 08:19:04;;;;;;;233.13;51.67;;;;;;;-0.68;100.00;103263.19;5056688;28;20032;-73
2022/01/11 08:21:30;;;;;;;194.85;46.75;;;;;;;-0.41;100.00;103260.31;5058656;28;20112;-75
2022/01/11 08:23:56;;;;;;;198.32;47.85;;;;;;;-0.34;100.00;103261.31;5056471;28;20129;-74
2022/01/11 08:26:23;;;;;;;217.10;50.22;;;;;;;-0.14;100.00;103267.13;5056574;28;20416;-74
2022/01/11 08:28:49;;;;;;;216.10;49.97;;;;;;;-0.09;100.00;103275.47;5055709;28;20052;-74
2022/01/11 08:31:14;;;;;;;204.00;48.10;;;;;;;-0.22;100.00;103267.97;5055767;28;20029;-73
2022/01/11 08:33:46;;;;;;;220.63;49.30;;;;;;;-0.36;100.00;103264.16;5056363;28;20566;-75
2022/01/11 08:36:13;;;;;;;213.63;49.65;;;;;;;-0.11;100.00;103256.88;5045946;28;20489;-75
2022/01/11 08:38:38;;;;;;;193.85;45.75;;;;;;;0.06;100.00;103249.59;5049087;28;20111;-73
2022/01/11 08:41:07;;;;;;;196.45;46.10;;;;;;;0.17;100.00;103253.72;5056218;28;20028;-73
2022/01/11 08:43:34;;;;;;;195.55;47.47;;;;;;;-0.27;100.00;103256.91;5052148;28;20036;-73
2022/01/11 08:46:02;;;;;;;200.95;43.25;;;;;;;-0.57;100.00;103256.66;5039159;28;20419;-73
2022/01/11 08:48:31;;;;;;;192.27;45.78;;;;;;;-0.09;100.00;103259.38;5057030;28;20040;-73
2022/01/11 08:51:03;;;;;;;;;;;;;;;0.17;100.00;103259.09;5057787;28;20931;-72
2022/01/11 08:53:30;;;;;;;188.32;45.53;;;;;;;0.29;100.00;103260.41;5045791;28;19930;-73
2022/01/11 08:55:59;;;;;;;190.40;45.10;;;;;;;0.30;100.00;103261.25;5046063;28;20110;-73
2022/01/11 08:58:24;;;;;;;190.55;44.60;;;;;;;0.53;100.00;103263.97;5044141;28;20390;-73
2022/01/11 09:00:52;;;;;;;181.95;43.67;;;;;;;0.53;100.00;103258.59;5040506;28;20532;-73
2022/01/11 09:03:17;;;;;;;164.02;44.40;;;;;;;0.39;100.00;103269.06;5043223;28;20029;-75
2022/01/11 09:05:46;;;;;;;171.32;44.42;;;;;;;0.59;100.00;103252.50;5041579;28;20405;-74
2022/01/11 09:08:13;;;;;;;170.52;42.20;;;;;;;0.65;100.00;103257.16;5037915;28;20033;-73
2022/01/11 09:10:40;;;;;;;177.77;42.55;;;;;;;0.92;100.00;103263.84;5040482;28;20084;-75
2022/01/11 09:13:05;;;;;;;169.60;40.55;;;;;;;0.72;100.00;103273.41;5040169;28;20037;-74
2022/01/11 09:15:32;;;;;;;155.45;39.30;;;;;;;0.92;100.00;103271.09;5040574;28;20364;-74
2022/01/11 09:18:01;;;;;;;154.23;38.95;;;;;;;0.73;100.00;103278.59;5047462;28;20037;-74
2022/01/11 09:20:26;;;;;;;151.02;39.85;;;;;;;1.09;100.00;103278.00;5053674;28;20063;-73
2022/01/11 09:22:53;;;;;;;150.07;39.38;;;;;;;1.36;100.00;103271.19;5056345;28;20060;-74
2022/01/11 09:25:20;;;;;;;151.95;37.55;;;;;;;0.87;100.00;103282.34;5042739;28;20037;-73
2022/01/11 09:27:52;;;;;;;148.32;38.38;;;;;;;1.13;100.00;103292.72;5046321;28;20043;-74
2022/01/11 09:30:19;;;;;;;136.20;37.50;;;;;;;1.28;100.00;103290.09;5037336;28;20063;-73
2022/01/11 09:32:48;;;;;;;126.22;37.33;;;;;;;1.28;100.00;103295.47;5050830;28;20039;-74
2022/01/11 09:35:14;;;;;;;137.48;35.05;;;;;;;1.30;100.00;103294.28;5043458;28;20451;-74
2022/01/11 09:37:42;;;;;;;143.50;37.30;;;;;;;1.48;100.00;103301.16;5032831;28;20145;-73
2022/01/11 09:40:10;;;;;;;134.70;35.22;;;;;;;1.40;100.00;103312.00;5053396;28;20753;-73
2022/01/11 09:42:38;;;;;;;129.48;34.92;;;;;;;1.46;100.00;103311.28;5051740;28;20048;-72
2022/01/11 09:45:11;;;;;;;126.00;34.30;;;;;;;1.64;100.00;103306.41;5027236;28;20519;-73
2022/01/11 09:47:42;;;;;;;120.03;34.38;;;;;;;1.59;100.00;103311.50;5050267;28;20026;-74
2022/01/11 09:50:11;;;;;;;129.55;34.17;;;;;;;1.67;100.00;103300.66;5043324;28;20068;-74
2022/01/11 09:52:40;;;;;;;131.30;35.60;;;;;;;1.72;100.00;103297.44;5050858;28;20040;-74
2022/01/11 09:55:07;;;;;;;134.43;35.15;;;;;;;1.55;100.00;103304.81;5041345;28;20040;-73
2022/01/11 09:57:34;;;;;;;112.63;34.15;;;;;;;1.85;100.00;103304.84;5021276;28;20148;-74
2022/01/11 10:00:17;;;;;;;122.13;35.40;;;;;;;1.68;100.00;103296.94;5043220;28;20048;-73
2022/01/11 10:02:42;;;;;;;120.40;34.03;;;;;;;1.51;100.00;103307.03;5043000;28;20440;-74
2022/01/11 10:05:16;;;;;;;128.52;34.58;;;;;;;1.66;100.00;103304.38;5048364;28;20832;-73
2022/01/11 10:07:47;;;;;;;114.32;33.80;;;;;;;1.65;100.00;103297.31;5041522;28;20483;-74
2022/01/11 10:10:22;;;;;;;115.97;35.95;;;;;;;1.50;100.00;103304.53;5038258;28;20037;-75
2022/01/11 10:12:58;;;;;;;126.03;34.65;;;;;;;1.64;100.00;103298.34;5043641;28;20224;-74
2022/01/11 10:15:33;;;;;;;121.53;34.00;;;;;;;1.98;100.00;103310.44;5043563;28;20052;-75
2022/01/11 10:18:03;;;;;;;120.82;35.42;;;;;;;1.79;100.00;103304.56;5048449;28;20037;-73
2022/01/11 10:20:31;;;;;;;123.60;34.22;;;;;;;2.02;100.00;103309.03;5040211;28;20037;-74
2022/01/11 10:23:08;;;;;;;126.53;34.83;;;;;;;2.09;100.00;103304.56;5058891;28;20121;-74
2022/01/11 10:25:44;;;;;;;;;;;;;;;1.91;100.00;103302.25;5060285;28;20293;-74
2022/01/11 10:28:10;;;;;;;128.77;35.38;;;;;;;2.32;100.00;103300.94;5058882;28;19926;-74
2022/01/11 10:30:40;;;;;;;126.00;33.88;;;;;;;2.27;100.00;103296.13;5059618;28;20253;-75
2022/01/11 10:33:09;;;;;;;114.22;34.17;;;;;;;2.09;100.00;103288.41;5046603;28;20136;-74
2022/01/11 10:35:42;;;;;;;117.13;34.92;;;;;;;2.32;100.00;103284.78;5057999;28;20037;-74
2022/01/11 10:38:22;;;;;;;102.60;32.65;;;;;;;2.10;100.00;103300.88;5046760;28;20231;-74
2022/01/11 10:40:48;;;;;;;115.72;35.00;;;;;;;2.27;100.00;103296.13;5056894;28;20036;-75
2022/01/11 10:43:18;;;;;;;101.85;32.38;;;;;;;2.14;100.00;103302.16;5052781;28;20033;-78
2022/01/11 10:45:58;;;;;;;111.70;34.05;;;;;;;2.19;100.00;103285.44;5051933;28;20062;-76
2022/01/11 10:48:27;;;;;;;113.72;32.30;;;;;;;2.09;100.00;103293.78;5051670;28;20041;-73
2022/01/11 10:50:56;;;;;;;105.30;31.77;;;;;;;2.12;100.00;103284.50;5052553;28;20061;-74
2022/01/11 10:53:27;;;;;;;104.57;32.95;;;;;;;2.33;100.00;103286.44;5051098;28;20142;-76
2022/01/11 10:55:55;;;;;;;108.00;31.27;;;;;;;2.21;100.00;103286.94;5045397;28;20045;-73
2022/01/11 10:58:22;;;;;;;110.00;32.88;;;;;;;2.13;100.00;103284.34;5027020;28;20127;-75
2022/01/11 11:00:50;;;;;;;93.35;31.50;;;;;;;2.21;100.00;103286.94;5041906;28;20104;-74